sensor_id;sensor_type;location;lat;lon;timestamp;pressure;altitude;pressure_sealevel;temperature;humidity
19023;BME280;35226;48.606;8.858;2023-04-26T00:02:09;96279.94;;;7.37;100.00
19023;BME280;35226;48.606;8.858;2023-04-26T00:04:36;96280.44;;;7.32;100.00
19023;BME280;35226;48.606;8.858;2023-04-26T00:07:02;96276.06;;;7.35;100.00
19023;BME280;35226;48.606;8.858;2023-04-26T00:09:27;96280.72;;;7.38;100.00
19023;BME280;35226;48.606;8.858;2023-04-26T00:11:53;96280.38;;;7.36;100.00
19023;BME280;35226;48.606;8.858;2023-04-26T00:14:18;96287.84;;;7.35;100.00
19023;BME280;35226;48.606;8.858;2023-04-26T00:16:44;96281.66;;;7.31;100.00
19023;BME280;35226;48.606;8.858;2023-04-26T00:19:10;96291.28;;;7.39;100.00
19023;BME280;35226;48.606;8.858;2023-04-26T00:21:36;96287.19;;;7.28;100.00
19023;BME280;35226;48.606;8.858;2023-04-26T00:24:01;96277.34;;;7.30;100.00
19023;BME280;35226;48.606;8.858;2023-04-26T00:26:27;96279.69;;;7.32;100.00
19023;BME280;35226;48.606;8.858;2023-04-26T00:28:52;96276.94;;;7.32;100.00
19023;BME280;35226;48.606;8.858;2023-04-26T00:31:18;96276.16;;;7.31;100.00
19023;BME280;35226;48.606;8.858;2023-04-26T00:33:44;96275.44;;;7.27;100.00
19023;BME280;35226;48.606;8.858;2023-04-26T00:36:09;96274.25;;;7.28;100.00
19023;BME280;35226;48.606;8.858;2023-04-26T00:38:35;96276.97;;;7.28;100.00
19023;BME280;35226;48.606;8.858;2023-04-26T00:41:01;96276.16;;;7.31;100.00
19023;BME280;35226;48.606;8.858;2023-04-26T00:43:26;96280.50;;;7.29;100.00
19023;BME280;35226;48.606;8.858;2023-04-26T00:45:52;96284.75;;;7.33;100.00
19023;BME280;35226;48.606;8.858;2023-04-26T00:48:18;96289.06;;;7.34;100.00
19023;BME280;35226;48.606;8.858;2023-04-26T00:50:45;96288.47;;;7.23;100.00
19023;BME280;35226;48.606;8.858;2023-04-26T00:53:13;96284.59;;;7.21;100.00
19023;BME280;35226;48.606;8.858;2023-04-26T00:55:42;96283.41;;;7.22;100.00
19023;BME280;35226;48.606;8.858;2023-04-26T00:58:09;96292.78;;;7.24;100.00
19023;BME280;35226;48.606;8.858;2023-04-26T01:00:34;96279.47;;;7.23;100.00
19023;BME280;35226;48.606;8.858;2023-04-26T01:03:00;96282.63;;;7.21;100.00
19023;BME280;35226;48.606;8.858;2023-04-26T01:05:26;96286.22;;;7.18;100.00
19023;BME280;35226;48.606;8.858;2023-04-26T01:07:52;96274.44;;;7.18;100.00
19023;BME280;35226;48.606;8.858;2023-04-26T01:10:17;96280.09;;;7.30;100.00
19023;BME280;35226;48.606;8.858;2023-04-26T01:12:43;96284.44;;;7.28;100.00
19023;BME280;35226;48.606;8.858;2023-04-26T01:15:09;96282.53;;;7.25;100.00
19023;BME280;35226;48.606;8.858;2023-04-26T01:17:36;96282.13;;;7.26;100.00
19023;BME280;35226;48.606;8.858;2023-04-26T01:20:05;96282.22;;;7.23;100.00
19023;BME280;35226;48.606;8.858;2023-04-26T01:22:36;96277.50;;;7.23;100.00
19023;BME280;35226;48.606;8.858;2023-04-26T01:25:03;96279.94;;;7.18;100.00
19023;BME280;35226;48.606;8.858;2023-04-26T01:27:31;96275.63;;;7.17;100.00
19023;BME280;35226;48.606;8.858;2023-04-26T01:29:56;96276.81;;;7.16;100.00
19023;BME280;35226;48.606;8.858;2023-04-26T01:32:22;96280.28;;;7.20;100.00
19023;BME280;35226;48.606;8.858;2023-04-26T01:34:48;96283.19;;;7.13;100.00
19023;BME280;35226;48.606;8.858;2023-04-26T01:37:13;96276.97;;;7.09;100.00
19023;BME280;35226;48.606;8.858;2023-04-26T01:39:39;96280.84;;;7.11;100.00
19023;BME280;35226;48.606;8.858;2023-04-26T01:42:04;96283.25;;;7.09;100.00
19023;BME280;35226;48.606;8.858;2023-04-26T01:44:30;96280.22;;;7.03;100.00
19023;BME280;35226;48.606;8.858;2023-04-26T01:46:59;96274.72;;;7.03;100.00
19023;BME280;35226;48.606;8.858;2023-04-26T01:49:24;96275.97;;;6.99;100.00
19023;BME280;35226;48.606;8.858;2023-04-26T01:51:50;96272.34;;;6.82;100.00
19023;BME280;35226;48.606;8.858;2023-04-26T01:54:16;96281.25;;;6.90;100.00
19023;BME280;35226;48.606;8.858;2023-04-26T01:56:41;96271.28;;;6.76;100.00
19023;BME280;35226;48.606;8.858;2023-04-26T01:59:06;96268.41;;;6.83;100.00
19023;BME280;35226;48.606;8.858;2023-04-26T02:01:32;96264.06;;;6.62;100.00
19023;BME280;35226;48.606;8.858;2023-04-26T02:03:57;96259.53;;;6.76;100.00
19023;BME280;35226;48.606;8.858;2023-04-26T02:06:23;96256.16;;;6.88;100.00
19023;BME280;35226;48.606;8.858;2023-04-26T02:08:49;96262.22;;;6.56;100.00
19023;BME280;35226;48.606;8.858;2023-04-26T02:11:15;96268.41;;;6.60;100.00
19023;BME280;35226;48.606;8.858;2023-04-26T02:13:40;96277.06;;;6.58;100.00
19023;BME280;35226;48.606;8.858;2023-04-26T02:16:06;96279.16;;;6.51;100.00
19023;BME280;35226;48.606;8.858;2023-04-26T02:18:32;96288.78;;;6.62;100.00
19023;BME280;35226;48.606;8.858;2023-04-26T02:20:57;96290.19;;;6.47;100.00
19023;BME280;35226;48.606;8.858;2023-04-26T02:23:23;96293.06;;;6.40;100.00
19023;BME280;35226;48.606;8.858;2023-04-26T02:25:48;96285.22;;;6.39;100.00
19023;BME280;35226;48.606;8.858;2023-04-26T02:28:15;96281.81;;;6.31;100.00
19023;BME280;35226;48.606;8.858;2023-04-26T02:30:41;96281.88;;;6.27;100.00
19023;BME280;35226;48.606;8.858;2023-04-26T02:33:07;96288.06;;;6.35;100.00
19023;BME280;35226;48.606;8.858;2023-04-26T02:35:34;96287.47;;;6.20;100.00
19023;BME280;35226;48.606;8.858;2023-04-26T02:38:03;96287.47;;;6.20;100.00
19023;BME280;35226;48.606;8.858;2023-04-26T02:40:28;96293.34;;;6.22;100.00
19023;BME280;35226;48.606;8.858;2023-04-26T02:42:55;96292.44;;;6.29;100.00
19023;BME280;35226;48.606;8.858;2023-04-26T02:45:21;96289.31;;;6.27;100.00
19023;BME280;35226;48.606;8.858;2023-04-26T02:47:46;96289.31;;;6.27;100.00
19023;BME280;35226;48.606;8.858;2023-04-26T02:50:12;96290.47;;;6.29;100.00
19023;BME280;35226;48.606;8.858;2023-04-26T02:52:37;96287.34;;;6.27;100.00
19023;BME280;35226;48.606;8.858;2023-04-26T02:55:03;96290.53;;;6.26;100.00
19023;BME280;35226;48.606;8.858;2023-04-26T02:57:30;96287.34;;;6.27;100.00
19023;BME280;35226;48.606;8.858;2023-04-26T02:59:56;96285.06;;;6.26;100.00
19023;BME280;35226;48.606;8.858;2023-04-26T03:02:23;96284.28;;;6.25;100.00
19023;BME280;35226;48.606;8.858;2023-04-26T03:04:48;96277.66;;;6.23;100.00
19023;BME280;35226;48.606;8.858;2023-04-26T03:07:14;96288.22;;;6.24;100.00
19023;BME280;35226;48.606;8.858;2023-04-26T03:09:40;96276.91;;;6.19;100.00
19023;BME280;35226;48.606;8.858;2023-04-26T03:12:06;96283.13;;;6.23;100.00
19023;BME280;35226;48.606;8.858;2023-04-26T03:14:33;96276.06;;;6.25;100.00
19023;BME280;35226;48.606;8.858;2023-04-26T03:16:59;96284.72;;;6.20;100.00
19023;BME280;35226;48.606;8.858;2023-04-26T03:19:25;96278.19;;;6.14;100.00
19023;BME280;35226;48.606;8.858;2023-04-26T03:21:51;96279.78;;;6.12;100.00
19023;BME280;35226;48.606;8.858;2023-04-26T03:24:17;96283.28;;;6.12;100.00
19023;BME280;35226;48.606;8.858;2023-04-26T03:26:44;96277.16;;;6.05;100.00
19023;BME280;35226;48.606;8.858;2023-04-26T03:29:09;96273.25;;;6.02;100.00
19023;BME280;35226;48.606;8.858;2023-04-26T03:31:37;96272.63;;;5.91;100.00
19023;BME280;35226;48.606;8.858;2023-04-26T03:34:03;96273.44;;;5.88;100.00
19023;BME280;35226;48.606;8.858;2023-04-26T03:36:28;96272.22;;;5.92;100.00
19023;BME280;35226;48.606;8.858;2023-04-26T03:38:54;96269.97;;;5.84;100.00
19023;BME280;35226;48.606;8.858;2023-04-26T03:41:20;96271.94;;;5.83;100.00
19023;BME280;35226;48.606;8.858;2023-04-26T03:43:47;96262.97;;;5.79;100.00
19023;BME280;35226;48.606;8.858;2023-04-26T03:46:12;96275.22;;;5.71;100.00
19023;BME280;35226;48.606;8.858;2023-04-26T03:48:38;96267.47;;;5.66;100.00
19023;BME280;35226;48.606;8.858;2023-04-26T03:51:04;96275.72;;;5.63;100.00
19023;BME280;35226;48.606;8.858;2023-04-26T03:53:30;96269.09;;;5.60;100.00
19023;BME280;35226;48.606;8.858;2023-04-26T03:55:56;96281.03;;;5.46;100.00
19023;BME280;35226;48.606;8.858;2023-04-26T03:58:23;96277.19;;;5.40;100.00
19023;BME280;35226;48.606;8.858;2023-04-26T04:00:49;96277.94;;;5.41;100.00
19023;BME280;35226;48.606;8.858;2023-04-26T04:03:14;96283.03;;;5.42;100.00
19023;BME280;35226;48.606;8.858;2023-04-26T04:05:40;96278.41;;;5.36;100.00
19023;BME280;35226;48.606;8.858;2023-04-26T04:08:06;96283.50;;;5.37;100.00
19023;BME280;35226;48.606;8.858;2023-04-26T04:10:32;96273.03;;;5.29;100.00
19023;BME280;35226;48.606;8.858;2023-04-26T04:12:58;96280.81;;;5.30;100.00
19023;BME280;35226;48.606;8.858;2023-04-26T04:15:23;96282.84;;;5.26;100.00
19023;BME280;35226;48.606;8.858;2023-04-26T04:17:49;96276.22;;;5.24;100.00
19023;BME280;35226;48.606;8.858;2023-04-26T04:20:14;96280.47;;;5.28;100.00
19023;BME280;35226;48.606;8.858;2023-04-26T04:22:41;96278.50;;;5.29;100.00
19023;BME280;35226;48.606;8.858;2023-04-26T04:25:07;96286.34;;;5.27;100.00
19023;BME280;35226;48.606;8.858;2023-04-26T04:27:37;96288.31;;;5.26;100.00
19023;BME280;35226;48.606;8.858;2023-04-26T04:30:04;96283.34;;;5.17;100.00
19023;BME280;35226;48.606;8.858;2023-04-26T04:32:32;96290.78;;;5.17;100.00
19023;BME280;35226;48.606;8.858;2023-04-26T04:34:58;96288.84;;;5.14;100.00
19023;BME280;35226;48.606;8.858;2023-04-26T04:37:24;96285.66;;;5.19;100.00
19023;BME280;35226;48.606;8.858;2023-04-26T04:39:51;96287.16;;;5.24;100.00
19023;BME280;35226;48.606;8.858;2023-04-26T04:42:16;96292.69;;;5.20;100.00
19023;BME280;35226;48.606;8.858;2023-04-26T04:44:42;96290.72;;;5.20;100.00
19023;BME280;35226;48.606;8.858;2023-04-26T04:47:10;96291.06;;;5.26;100.00
19023;BME280;35226;48.606;8.858;2023-04-26T04:49:36;96298.88;;;5.28;100.00
19023;BME280;35226;48.606;8.858;2023-04-26T04:52:03;96291.84;;;5.27;100.00
19023;BME280;35226;48.606;8.858;2023-04-26T04:54:29;96297.25;;;5.30;100.00
19023;BME280;35226;48.606;8.858;2023-04-26T04:56:55;96300.84;;;5.27;100.00
19023;BME280;35226;48.606;8.858;2023-04-26T04:59:22;96301.59;;;5.28;100.00
19023;BME280;35226;48.606;8.858;2023-04-26T05:01:48;96300.06;;;5.27;100.00
19023;BME280;35226;48.606;8.858;2023-04-26T05:04:14;96305.03;;;5.35;100.00
19023;BME280;35226;48.606;8.858;2023-04-26T05:06:41;96306.13;;;5.41;100.00
19023;BME280;35226;48.606;8.858;2023-04-26T05:09:07;96308.06;;;5.44;100.00
19023;BME280;35226;48.606;8.858;2023-04-26T05:11:34;96304.06;;;5.49;100.00
19023;BME280;35226;48.606;8.858;2023-04-26T05:14:01;96307.59;;;5.49;100.00
19023;BME280;35226;48.606;8.858;2023-04-26T05:16:27;96312.53;;;5.62;100.00
19023;BME280;35226;48.606;8.858;2023-04-26T05:18:53;96316.06;;;5.62;100.00
19023;BME280;35226;48.606;8.858;2023-04-26T05:21:18;96312.16;;;5.59;100.00
19023;BME280;35226;48.606;8.858;2023-04-26T05:23:44;96321.91;;;5.64;100.00
19023;BME280;35226;48.606;8.858;2023-04-26T05:26:15;96318.75;;;5.66;100.00
19023;BME280;35226;48.606;8.858;2023-04-26T05:28:49;96324.16;;;5.73;100.00
19023;BME280;35226;48.606;8.858;2023-04-26T05:31:24;96326.59;;;5.67;100.00
19023;BME280;35226;48.606;8.858;2023-04-26T05:34:02;96331.31;;;5.63;100.00
19023;BME280;35226;48.606;8.858;2023-04-26T05:36:32;96332.47;;;5.66;100.00
19023;BME280;35226;48.606;8.858;2023-04-26T05:38:58;96335.91;;;5.73;100.00
19023;BME280;35226;48.606;8.858;2023-04-26T05:41:23;96333.53;;;5.75;100.00
19023;BME280;35226;48.606;8.858;2023-04-26T05:43:49;96340.50;;;5.80;100.00
19023;BME280;35226;48.606;8.858;2023-04-26T05:46:15;96342.06;;;5.81;100.00
19023;BME280;35226;48.606;8.858;2023-04-26T05:48:40;96341.25;;;5.84;100.00
19023;BME280;35226;48.606;8.858;2023-04-26T05:51:06;96337.66;;;5.90;100.00
19023;BME280;35226;48.606;8.858;2023-04-26T05:53:31;96338.78;;;5.97;100.00
19023;BME280;35226;48.606;8.858;2023-04-26T05:55:58;96335.25;;;5.96;100.00
19023;BME280;35226;48.606;8.858;2023-04-26T05:58:24;96337.50;;;6.01;100.00
19023;BME280;35226;48.606;8.858;2023-04-26T06:00:49;96328.47;;;6.04;100.00
19023;BME280;35226;48.606;8.858;2023-04-26T06:03:16;96330.47;;;6.00;100.00
19023;BME280;35226;48.606;8.858;2023-04-26T06:05:41;96332.41;;;6.03;100.00
19023;BME280;35226;48.606;8.858;2023-04-26T06:08:07;96340.94;;;6.09;100.00
19023;BME280;35226;48.606;8.858;2023-04-26T06:10:34;96343.94;;;6.18;100.00
19023;BME280;35226;48.606;8.858;2023-04-26T06:13:00;96341.16;;;6.21;100.00
19023;BME280;35226;48.606;8.858;2023-04-26T06:15:28;96346.94;;;6.27;100.00
19023;BME280;35226;48.606;8.858;2023-04-26T06:17:53;96352.22;;;6.41;100.00
19023;BME280;35226;48.606;8.858;2023-04-26T06:20:19;96351.03;;;6.42;100.00
19023;BME280;35226;48.606;8.858;2023-04-26T06:22:45;96351.59;;;6.30;100.00
19023;BME280;35226;48.606;8.858;2023-04-26T06:25:11;96357.19;;;6.23;100.00
19023;BME280;35226;48.606;8.858;2023-04-26T06:27:37;96350.53;;;6.24;100.00
19023;BME280;35226;48.606;8.858;2023-04-26T06:30:05;96358.25;;;6.32;100.00
19023;BME280;35226;48.606;8.858;2023-04-26T06:32:32;96364.09;;;6.35;100.00
19023;BME280;35226;48.606;8.858;2023-04-26T06:34:58;96371.47;;;6.38;100.00
19023;BME280;35226;48.606;8.858;2023-04-26T06:37:24;96377.41;;;6.36;100.00
19023;BME280;35226;48.606;8.858;2023-04-26T06:39:50;96366.69;;;6.45;100.00
19023;BME280;35226;48.606;8.858;2023-04-26T06:42:16;96366.69;;;6.45;100.00
19023;BME280;35226;48.606;8.858;2023-04-26T06:44:53;96365.53;;;6.43;100.00
19023;BME280;35226;48.606;8.858;2023-04-26T06:47:19;96361.50;;;6.51;100.00
19023;BME280;35226;48.606;8.858;2023-04-26T06:49:44;96360.19;;;6.59;100.00
19023;BME280;35226;48.606;8.858;2023-04-26T06:52:10;96351.09;;;6.65;100.00
19023;BME280;35226;48.606;8.858;2023-04-26T06:54:36;96350.56;;;6.74;100.00
19023;BME280;35226;48.606;8.858;2023-04-26T06:57:01;96346.31;;;6.69;100.00
19023;BME280;35226;48.606;8.858;2023-04-26T06:59:26;96344.94;;;6.81;100.00
19023;BME280;35226;48.606;8.858;2023-04-26T07:01:52;96352.22;;;6.91;100.00
19023;BME280;35226;48.606;8.858;2023-04-26T07:04:18;96352.03;;;7.02;100.00
19023;BME280;35226;48.606;8.858;2023-04-26T07:06:44;96348.38;;;7.09;100.00
19023;BME280;35226;48.606;8.858;2023-04-26T07:09:10;96337.91;;;7.03;100.00
19023;BME280;35226;48.606;8.858;2023-04-26T07:11:36;96349.91;;;7.13;100.00
19023;BME280;35226;48.606;8.858;2023-04-26T07:14:02;96346.00;;;7.11;100.00
19023;BME280;35226;48.606;8.858;2023-04-26T07:16:28;96338.28;;;7.25;100.00
19023;BME280;35226;48.606;8.858;2023-04-26T07:18:53;96339.78;;;7.30;100.00
19023;BME280;35226;48.606;8.858;2023-04-26T07:21:22;96331.47;;;7.33;100.00
19023;BME280;35226;48.606;8.858;2023-04-26T07:23:47;96332.31;;;7.30;100.00
19023;BME280;35226;48.606;8.858;2023-04-26T07:26:13;96323.44;;;7.42;100.00
19023;BME280;35226;48.606;8.858;2023-04-26T07:28:38;96331.75;;;7.59;100.00
19023;BME280;35226;48.606;8.858;2023-04-26T07:31:04;96328.66;;;7.57;100.00
19023;BME280;35226;48.606;8.858;2023-04-26T07:33:29;96319.22;;;7.58;100.00
19023;BME280;35226;48.606;8.858;2023-04-26T07:35:58;96324.00;;;7.54;100.00
19023;BME280;35226;48.606;8.858;2023-04-26T07:38:24;96318.00;;;7.59;100.00
19023;BME280;35226;48.606;8.858;2023-04-26T07:40:50;96325.00;;;7.63;100.00
19023;BME280;35226;48.606;8.858;2023-04-26T07:43:16;96321.91;;;7.61;100.00
19023;BME280;35226;48.606;8.858;2023-04-26T07:45:42;96316.66;;;7.67;100.00
19023;BME280;35226;48.606;8.858;2023-04-26T07:48:07;96318.94;;;7.72;100.00
19023;BME280;35226;48.606;8.858;2023-04-26T07:50:33;96322.88;;;7.91;100.00
19023;BME280;35226;48.606;8.858;2023-04-26T07:52:58;96323.97;;;7.93;100.00
19023;BME280;35226;48.606;8.858;2023-04-26T07:55:24;96329.03;;;7.95;100.00
19023;BME280;35226;48.606;8.858;2023-04-26T07:57:50;96322.84;;;8.10;100.00
19023;BME280;35226;48.606;8.858;2023-04-26T08:00:16;96334.41;;;8.02;100.00
19023;BME280;35226;48.606;8.858;2023-04-26T08:02:43;96328.81;;;8.05;100.00
19023;BME280;35226;48.606;8.858;2023-04-26T08:05:10;96336.94;;;8.12;100.00
19023;BME280;35226;48.606;8.858;2023-04-26T08:07:37;96342.06;;;8.30;100.00
19023;BME280;35226;48.606;8.858;2023-04-26T08:10:02;96338.56;;;8.10;100.00
19023;BME280;35226;48.606;8.858;2023-04-26T08:12:28;96335.47;;;8.44;100.00
19023;BME280;35226;48.606;8.858;2023-04-26T08:14:53;96341.06;;;8.57;100.00
19023;BME280;35226;48.606;8.858;2023-04-26T08:17:19;96340.56;;;8.62;100.00
19023;BME280;35226;48.606;8.858;2023-04-26T08:19:44;96341.25;;;8.66;100.00
19023;BME280;35226;48.606;8.858;2023-04-26T08:22:10;96340.66;;;8.74;100.00
19023;BME280;35226;48.606;8.858;2023-04-26T08:24:35;96350.75;;;8.81;100.00
19023;BME280;35226;48.606;8.858;2023-04-26T08:27:01;96348.41;;;8.79;100.00
19023;BME280;35226;48.606;8.858;2023-04-26T08:29:26;96349.09;;;8.83;100.00
19023;BME280;35226;48.606;8.858;2023-04-26T08:31:52;96344.34;;;8.84;100.00
19023;BME280;35226;48.606;8.858;2023-04-26T08:34:18;96344.94;;;8.75;100.00
19023;BME280;35226;48.606;8.858;2023-04-26T08:36:43;96343.22;;;8.81;100.00
19023;BME280;35226;48.606;8.858;2023-04-26T08:39:10;96350.56;;;8.88;100.00
19023;BME280;35226;48.606;8.858;2023-04-26T08:41:43;96343.41;;;9.07;100.00
19023;BME280;35226;48.606;8.858;2023-04-26T08:44:09;96342.69;;;9.03;100.00
19023;BME280;35226;48.606;8.858;2023-04-26T08:46:46;96340.28;;;9.05;100.00
19023;BME280;35226;48.606;8.858;2023-04-26T08:51:52;96344.19;;;9.07;100.00
19023;BME280;35226;48.606;8.858;2023-04-26T08:54:19;96345.63;;;9.12;100.00
19023;BME280;35226;48.606;8.858;2023-04-26T08:56:45;96339.06;;;9.22;100.00
19023;BME280;35226;48.606;8.858;2023-04-26T08:59:11;96344.41;;;9.29;100.00
19023;BME280;35226;48.606;8.858;2023-04-26T09:01:42;96350.66;;;9.01;100.00
19023;BME280;35226;48.606;8.858;2023-04-26T09:04:08;96345.72;;;9.08;100.00
19023;BME280;35226;48.606;8.858;2023-04-26T09:06:34;96345.47;;;9.19;100.00
19023;BME280;35226;48.606;8.858;2023-04-26T09:09:02;96345.34;;;9.22;100.00
19023;BME280;35226;48.606;8.858;2023-04-26T09:11:29;96342.94;;;9.24;100.00
19023;BME280;35226;48.606;8.858;2023-04-26T09:13:55;96346.03;;;9.26;100.00
19023;BME280;35226;48.606;8.858;2023-04-26T09:16:34;96345.50;;;9.32;100.00
19023;BME280;35226;48.606;8.858;2023-04-26T09:19:00;96343.25;;;9.43;100.00
19023;BME280;35226;48.606;8.858;2023-04-26T09:21:26;96346.38;;;9.28;100.00
19023;BME280;35226;48.606;8.858;2023-04-26T09:23:57;96339.31;;;9.27;100.00
19023;BME280;35226;48.606;8.858;2023-04-26T09:26:23;96338.97;;;9.25;100.00
19023;BME280;35226;48.606;8.858;2023-04-26T09:28:48;96336.56;;;9.27;100.00
19023;BME280;35226;48.606;8.858;2023-04-26T09:31:41;96337.28;;;9.15;100.00
19023;BME280;35226;48.606;8.858;2023-04-26T09:34:08;96334.44;;;9.19;100.00
19023;BME280;35226;48.606;8.858;2023-04-26T09:36:52;96327.81;;;9.45;100.00
19023;BME280;35226;48.606;8.858;2023-04-26T09:41:57;96322.66;;;9.60;100.00
19023;BME280;35226;48.606;8.858;2023-04-26T09:44:23;96319.09;;;9.76;100.00
19023;BME280;35226;48.606;8.858;2023-04-26T09:47:05;96316.84;;;9.71;100.00
19023;BME280;35226;48.606;8.858;2023-04-26T09:49:48;96325.13;;;9.71;100.00
19023;BME280;35226;48.606;8.858;2023-04-26T09:52:15;96320.31;;;9.75;100.00
19023;BME280;35226;48.606;8.858;2023-04-26T09:54:48;96321.63;;;9.83;100.00
19023;BME280;35226;48.606;8.858;2023-04-26T09:57:15;96331.03;;;9.85;100.00
19023;BME280;35226;48.606;8.858;2023-04-26T09:59:46;96326.50;;;9.91;100.00
19023;BME280;35226;48.606;8.858;2023-04-26T10:02:25;96326.75;;;9.97;100.00
19023;BME280;35226;48.606;8.858;2023-04-26T10:04:52;96321.88;;;9.88;100.00
19023;BME280;35226;48.606;8.858;2023-04-26T10:07:20;96315.59;;;9.88;100.00
19023;BME280;35226;48.606;8.858;2023-04-26T10:09:46;96313.28;;;9.99;100.00
19023;BME280;35226;48.606;8.858;2023-04-26T10:12:19;96316.69;;;9.78;100.00
19023;BME280;35226;48.606;8.858;2023-04-26T10:14:45;96303.44;;;9.85;100.00
19023;BME280;35226;48.606;8.858;2023-04-26T10:17:12;96309.09;;;9.94;100.00
19023;BME280;35226;48.606;8.858;2023-04-26T10:19:40;96302.69;;;9.97;100.00
19023;BME280;35226;48.606;8.858;2023-04-26T10:22:12;96307.19;;;9.91;100.00
19023;BME280;35226;48.606;8.858;2023-04-26T10:24:39;96304.72;;;10.22;100.00
19023;BME280;35226;48.606;8.858;2023-04-26T10:27:05;96301.66;;;10.46;100.00
19023;BME280;35226;48.606;8.858;2023-04-26T10:32:18;96300.53;;;11.16;100.00
19023;BME280;35226;48.606;8.858;2023-04-26T10:35:10;96284.00;;;11.81;95.64
19023;BME280;35226;48.606;8.858;2023-04-26T10:40:26;96282.78;;;11.82;95.04
19023;BME280;35226;48.606;8.858;2023-04-26T10:45:33;96272.88;;;12.74;78.23
19023;BME280;35226;48.606;8.858;2023-04-26T10:53:30;96275.53;;;12.95;59.38
19023;BME280;35226;48.606;8.858;2023-04-26T10:55:56;96270.22;;;12.52;64.38
19023;BME280;35226;48.606;8.858;2023-04-26T10:58:40;96273.84;;;12.40;59.56
19023;BME280;35226;48.606;8.858;2023-04-26T11:01:14;96275.72;;;12.43;64.92
19023;BME280;35226;48.606;8.858;2023-04-26T11:04:11;96274.00;;;12.05;63.01
19023;BME280;35226;48.606;8.858;2023-04-26T11:06:55;96270.97;;;12.12;63.59
19023;BME280;35226;48.606;8.858;2023-04-26T11:09:39;96273.88;;;12.09;64.06
19023;BME280;35226;48.606;8.858;2023-04-26T11:12:12;96263.22;;;12.07;63.29
19023;BME280;35226;48.606;8.858;2023-04-26T11:14:38;96268.09;;;11.94;67.46
19023;BME280;35226;48.606;8.858;2023-04-26T11:17:06;96264.75;;;11.77;66.65
19023;BME280;35226;48.606;8.858;2023-04-26T11:19:33;96259.19;;;11.99;64.60
19023;BME280;35226;48.606;8.858;2023-04-26T11:21:59;96264.97;;;12.14;61.44
19023;BME280;35226;48.606;8.858;2023-04-26T11:24:34;96266.66;;;12.11;65.35
19023;BME280;35226;48.606;8.858;2023-04-26T11:27:07;96255.13;;;12.13;60.68
19023;BME280;35226;48.606;8.858;2023-04-26T11:29:33;96243.69;;;12.02;72.32
19023;BME280;35226;48.606;8.858;2023-04-26T11:31:58;96242.53;;;12.21;61.77
19023;BME280;35226;48.606;8.858;2023-04-26T11:34:34;96242.09;;;12.22;57.63
19023;BME280;35226;48.606;8.858;2023-04-26T11:37:04;96233.91;;;12.19;62.34
19023;BME280;35226;48.606;8.858;2023-04-26T11:39:31;96226.13;;;12.45;73.08
19023;BME280;35226;48.606;8.858;2023-04-26T11:42:04;96216.28;;;12.44;63.05
19023;BME280;35226;48.606;8.858;2023-04-26T11:44:30;96214.38;;;12.90;77.56
19023;BME280;35226;48.606;8.858;2023-04-26T11:46:56;96216.81;;;12.60;62.61
19023;BME280;35226;48.606;8.858;2023-04-26T11:49:22;96222.84;;;12.95;61.53
19023;BME280;35226;48.606;8.858;2023-04-26T11:51:48;96217.59;;;12.70;58.54
19023;BME280;35226;48.606;8.858;2023-04-26T11:54:33;96214.94;;;12.57;55.73
19023;BME280;35226;48.606;8.858;2023-04-26T11:56:59;96210.19;;;12.76;60.12
19023;BME280;35226;48.606;8.858;2023-04-26T11:59:26;96204.66;;;12.85;60.21
19023;BME280;35226;48.606;8.858;2023-04-26T12:01:54;96209.44;;;12.94;55.43
19023;BME280;35226;48.606;8.858;2023-04-26T12:04:29;96212.50;;;12.59;56.69
19023;BME280;35226;48.606;8.858;2023-04-26T12:06:56;96215.28;;;12.87;60.96
19023;BME280;35226;48.606;8.858;2023-04-26T12:09:30;96211.59;;;12.81;57.92
19023;BME280;35226;48.606;8.858;2023-04-26T12:14:35;96215.34;;;13.23;57.79
19023;BME280;35226;48.606;8.858;2023-04-26T12:17:03;96214.41;;;13.36;58.38
19023;BME280;35226;48.606;8.858;2023-04-26T12:19:33;96214.72;;;13.47;55.92
19023;BME280;35226;48.606;8.858;2023-04-26T12:22:05;96219.47;;;13.01;52.91
19023;BME280;35226;48.606;8.858;2023-04-26T12:24:31;96205.28;;;12.89;54.29
19023;BME280;35226;48.606;8.858;2023-04-26T12:26:59;96206.97;;;12.87;59.11
19023;BME280;35226;48.606;8.858;2023-04-26T12:29:27;96211.91;;;12.83;56.66
19023;BME280;35226;48.606;8.858;2023-04-26T12:31:58;96210.06;;;12.71;55.03
19023;BME280;35226;48.606;8.858;2023-04-26T12:34:24;96204.06;;;12.81;56.58
19023;BME280;35226;48.606;8.858;2023-04-26T12:36:50;96208.97;;;12.95;61.05
19023;BME280;35226;48.606;8.858;2023-04-26T12:39:15;96203.63;;;13.10;64.84
19023;BME280;35226;48.606;8.858;2023-04-26T12:41:41;96196.69;;;13.33;58.61
19023;BME280;35226;48.606;8.858;2023-04-26T12:44:08;96190.66;;;12.89;55.04
19023;BME280;35226;48.606;8.858;2023-04-26T12:46:35;96192.19;;;13.08;55.94
19023;BME280;35226;48.606;8.858;2023-04-26T12:49:00;96198.97;;;12.98;59.13
19023;BME280;35226;48.606;8.858;2023-04-26T12:51:27;96200.06;;;12.82;58.65
19023;BME280;35226;48.606;8.858;2023-04-26T12:53:53;96197.75;;;12.90;56.22
19023;BME280;35226;48.606;8.858;2023-04-26T12:56:19;96203.47;;;13.14;55.22
19023;BME280;35226;48.606;8.858;2023-04-26T12:58:44;96197.47;;;13.15;54.21
19023;BME280;35226;48.606;8.858;2023-04-26T13:01:12;96210.22;;;13.13;55.69
19023;BME280;35226;48.606;8.858;2023-04-26T13:03:39;96204.41;;;13.29;55.65
19023;BME280;35226;48.606;8.858;2023-04-26T13:06:04;96202.38;;;13.48;57.56
19023;BME280;35226;48.606;8.858;2023-04-26T13:08:30;96192.06;;;13.30;54.18
19023;BME280;35226;48.606;8.858;2023-04-26T13:10:56;96187.91;;;13.16;55.19
19023;BME280;35226;48.606;8.858;2023-04-26T13:13:22;96195.78;;;13.27;57.82
19023;BME280;35226;48.606;8.858;2023-04-26T13:15:48;96199.91;;;13.04;55.98
19023;BME280;35226;48.606;8.858;2023-04-26T13:18:13;96200.41;;;13.30;54.48
19023;BME280;35226;48.606;8.858;2023-04-26T13:20:40;96202.06;;;13.37;52.32
19023;BME280;35226;48.606;8.858;2023-04-26T13:23:05;96193.63;;;13.31;56.17